Time;durP1;ratioP1;P1;durP2;ratioP2;P2;SDS_P1;SDS_P2;PMS_P1;PMS_P2;Temp;Humidity;BMP_temperature;BMP_pressure;BME280_temperature;BME280_humidity;BME280_pressure;Samples;Min_cycle;Max_cycle;Signal;HPM_P1;HPM_P2
2023/01/14 00:01:16;;;;;;;;;;;;;;;;;;5046600;28;960;-78
2023/01/14 00:03:41;;;;;;;;;;;;;;;;;;5037375;28;1138;-70
2023/01/14 00:06:07;;;;;;;;;;;;;;;;;;5034382;28;873;-72
2023/01/14 00:08:33;;;;;;;;;;;;;;;;;;5035299;28;889;-73
2023/01/14 00:11:02;;;;;;;;;;;;;;;;;;5033160;28;1472;-74
2023/01/14 00:13:28;;;;;;;;;;;;;;;;;;5033163;28;1290;-70
2023/01/14 00:15:54;;;;;;;;;;;;;;;;;;5033296;28;1532;-69
2023/01/14 00:18:20;;;;;;;;;;;;;;;;;;5034374;28;1151;-72
2023/01/14 00:21:03;;;;;;;;;;;;;;;;;;5033776;28;1963;-73
2023/01/14 00:23:29;;;;;;;;;;;;;;;;;;5034149;28;840;-67
2023/01/14 00:25:59;;;;;;;;;;;;;;;;;;5032856;28;1006;-70
2023/01/14 00:28:25;;;;;;;;;;;;;;;;;;5031724;28;1246;-70
2023/01/14 00:30:50;;;;;;;;;;;;;;;;;;5032065;28;1266;-70
2023/01/14 00:33:15;;;;;;;;;;;;;;;;;;5031832;28;908;-69
2023/01/14 00:35:41;;;;;;;;;;;;;;;;;;5031890;28;1244;-69
2023/01/14 00:38:06;;;;;;;;;;;;;;;;;;5031111;28;1330;-69
2023/01/14 00:40:31;;;;;;;;;;;;;;;;;;5031275;28;1967;-69
2023/01/14 00:42:57;;;;;;;;;;;;;;;;;;5032269;28;912;-69
2023/01/14 00:45:22;;;;;;;;;;;;;;;;;;5031313;28;1287;-70
2023/01/14 00:47:47;;;;;;;;;;;;;;;;;;5032062;28;1110;-69
2023/01/14 00:50:13;;;;;;;;;;;;;;;;;;5032364;28;988;-75
2023/01/14 00:52:38;;;;;;;;;;;;;;;;;;5031200;28;1534;-74
2023/01/14 00:55:03;;;;;;;;;;;;;;;;;;5033130;28;1216;-74
2023/01/14 00:57:29;;;;;;;;;;;;;;;;;;5032748;28;1161;-74
2023/01/14 00:59:54;;;;;;;;;;;;;;;;;;5032490;28;1891;-74
2023/01/14 01:02:19;;;;;;;;;;;;;;;;;;5030365;28;1228;-75
2023/01/14 01:04:45;;;;;;;;;;;;;;;;;;5013332;28;1180;-75
2023/01/14 01:07:10;;;;;;;;;;;;;;;;;;5031486;28;1284;-75
2023/01/14 01:09:35;;;;;;;;;;;;;;;;;;5030791;28;901;-74
2023/01/14 01:12:00;;;;;;;;;;;;;;;;;;5031490;28;823;-74
2023/01/14 01:14:26;;;;;;;;;;;;;;;;;;5030840;28;924;-74
2023/01/14 01:16:51;;;;;;;;;;;;;;;;;;5030317;28;1196;-74
2023/01/14 01:19:16;;;;;;;;;;;;;;;;;;5030680;28;1963;-74
2023/01/14 01:21:42;;;;;;;;;;;;;;;;;;5013889;28;1180;-74
2023/01/14 01:24:07;;;;;;;;;;;;;;;;;;5031982;28;884;-70
2023/01/14 01:26:33;;;;;;;;;;;;;;;;;;5031547;28;889;-70
2023/01/14 01:28:58;;;;;;;;;;;;;;;;;;5031561;28;825;-70
2023/01/14 01:31:24;;;;;;;;;;;;;;;;;;5013724;28;1180;-69
2023/01/14 01:33:49;;;;;;;;;;;;;;;;;;5031448;28;904;-70
2023/01/14 01:36:16;;;;;;;;;;;;;;;;;;5031220;28;1147;-70
2023/01/14 01:38:42;;;;;;;;;;;;;;;;;;5031393;28;892;-70
2023/01/14 01:41:12;;;;;;;;;;;;;;;;;;5029679;28;1902;-70
2023/01/14 01:43:55;;;;;;;;;;;;;;;;;;5031037;28;937;-69
2023/01/14 01:46:20;;;;;;;;;;;;;;;;;;5035406;28;822;-69
2023/01/14 01:48:46;;;;;;;;;;;;;;;;;;5035156;28;976;-70
2023/01/14 01:51:15;;;;;;;;;;;;;;;;;;5017197;28;1188;-70
2023/01/14 01:53:42;;;;;;;;;;;;;;;;;;5034818;28;924;-70
2023/01/14 01:56:12;;;;;;;;;;;;;;;;;;5033398;28;1199;-70
2023/01/14 01:58:37;;;;;;;;;;;;;;;;;;5035179;28;1062;-70
2023/01/14 02:01:03;;;;;;;;;;;;;;;;;;5033590;28;1991;-70
2023/01/14 02:03:37;;;;;;;;;;;;;;;;;;5017467;28;1510;-69
2023/01/14 02:06:02;;;;;;;;;;;;;;;;;;5034690;28;909;-69
2023/01/14 02:08:28;;;;;;;;;;;;;;;;;;5034140;28;1317;-70
2023/01/14 02:10:53;;;;;;;;;;;;;;;;;;5035433;28;873;-69
2023/01/14 02:13:28;;;;;;;;;;;;;;;;;;5033927;28;1251;-70
2023/01/14 02:16:04;;;;;;;;;;;;;;;;;;5035410;28;798;-69
2023/01/14 02:18:36;;;;;;;;;;;;;;;;;;5033495;28;1215;-71
2023/01/14 02:21:21;;;;;;;;;;;;;;;;;;5034775;28;1890;-70
2023/01/14 02:23:52;;;;;;;;;;;;;;;;;;5033909;28;1133;-70
2023/01/14 02:26:24;;;;;;;;;;;;;;;;;;5033344;28;1278;-69
2023/01/14 02:28:49;;;;;;;;;;;;;;;;;;5035334;28;876;-70
2023/01/14 02:31:20;;;;;;;;;;;;;;;;;;5033353;28;1326;-69
2023/01/14 02:33:57;;;;;;;;;;;;;;;;;;5034266;28;892;-70
2023/01/14 02:36:36;;;;;;;;;;;;;;;;;;5034308;28;919;-69
2023/01/14 02:39:14;;;;;;;;;;;;;;;;;;5032615;28;1902;-70
2023/01/14 02:44:29;;;;;;;;;;;;;;;;;;5034077;28;655;-69
2023/01/14 02:46:58;;;;;;;;;;;;;;;;;;5032696;28;1247;-70
2023/01/14 02:49:26;;;;;;;;;;;;;;;;;;5032702;28;1387;-69
2023/01/14 02:51:52;;;;;;;;;;;;;;;;;;5032988;28;1255;-70
2023/01/14 02:54:17;;;;;;;;;;;;;;;;;;5015909;28;1209;-70
2023/01/14 02:56:44;;;;;;;;;;;;;;;;;;5032180;28;1164;-70
2023/01/14 02:59:25;;;;;;;;;;;;;;;;;;5033380;28;1914;-69
2023/01/14 03:02:03;;;;;;;;;;;;;;;;;;5033979;28;868;-70
2023/01/14 03:04:30;;;;;;;;;;;;;;;;;;5033819;28;989;-70
2023/01/14 03:06:59;;;;;;;;;;;;;;;;;;5032694;28;1652;-70
2023/01/14 03:09:30;;;;;;;;;;;;;;;;;;5032101;28;1247;-69
2023/01/14 03:11:57;;;;;;;;;;;;;;;;;;5032163;28;1258;-70
2023/01/14 03:14:30;;;;;;;;;;;;;;;;;;5033559;28;885;-69
2023/01/14 03:17:01;;;;;;;;;;;;;;;;;;5033634;28;1067;-70
2023/01/14 03:19:34;;;;;;;;;;;;;;;;;;5033408;28;1898;-70
2023/01/14 03:22:02;;;;;;;;;;;;;;;;;;5033453;28;917;-69
2023/01/14 03:24:32;;;;;;;;;;;;;;;;;;5033463;28;908;-69
2023/01/14 03:27:01;;;;;;;;;;;;;;;;;;5032183;28;1219;-69
2023/01/14 03:29:29;;;;;;;;;;;;;;;;;;5032128;28;1227;-70
2023/01/14 03:32:18;;;;;;;;;;;;;;;;;;5032350;28;1387;-70
2023/01/14 03:34:46;;;;;;;;;;;;;;;;;;5033473;28;925;-69
2023/01/14 03:37:12;;;;;;;;;;;;;;;;;;5031970;28;1433;-69
2023/01/14 03:39:40;;;;;;;;;;;;;;;;;;5031828;28;1991;-70
2023/01/14 03:42:20;;;;;;;;;;;;;;;;;;5033442;28;901;-69
2023/01/14 03:44:52;;;;;;;;;;;;;;;;;;5033304;28;955;-70
2023/01/14 03:47:18;;;;;;;;;;;;;;;;;;5031781;28;1176;-69
2023/01/14 03:49:44;;;;;;;;;;;;;;;;;;5031901;28;1239;-70
2023/01/14 03:52:15;;;;;;;;;;;;;;;;;;5031866;28;849;-70
2023/01/14 03:54:51;;;;;;;;;;;;;;;;;;5033168;28;924;-70
2023/01/14 03:57:31;;;;;;;;;;;;;;;;;;5031671;28;1297;-70
2023/01/14 04:00:01;;;;;;;;;;;;;;;;;;5032341;28;1906;-70
2023/01/14 04:02:28;;;;;;;;;;;;;;;;;;5031654;28;1093;-69
2023/01/14 04:04:54;;;;;;;;;;;;;;;;;;5032296;28;758;-69
2023/01/14 04:07:19;;;;;;;;;;;;;;;;;;5031978;28;896;-69
2023/01/14 04:09:45;;;;;;;;;;;;;;;;;;5032818;28;892;-73
2023/01/14 04:12:10;;;;;;;;;;;;;;;;;;5032993;28;836;-74
2023/01/14 04:17:19;;;;;;;;;;;;;;;;;;5032160;28;640;-74
2023/01/14 04:19:44;;;;;;;;;;;;;;;;;;5031179;28;1956;-74
2023/01/14 04:22:10;;;;;;;;;;;;;;;;;;5033059;28;786;-74
2023/01/14 04:24:35;;;;;;;;;;;;;;;;;;5032231;28;936;-74
2023/01/14 04:27:03;;;;;;;;;;;;;;;;;;5014638;28;1196;-73
2023/01/14 04:29:28;;;;;;;;;;;;;;;;;;5031380;28;1327;-74
2023/01/14 04:31:56;;;;;;;;;;;;;;;;;;5032400;28;936;-74
2023/01/14 04:34:21;;;;;;;;;;;;;;;;;;5031143;28;932;-74
2023/01/14 04:36:46;;;;;;;;;;;;;;;;;;5031166;28;1220;-74
2023/01/14 04:39:12;;;;;;;;;;;;;;;;;;5014131;28;1973;-73
2023/01/14 04:44:21;;;;;;;;;;;;;;;;;;5031157;28;680;-74
2023/01/14 04:46:47;;;;;;;;;;;;;;;;;;5032272;28;849;-74
2023/01/14 04:49:15;;;;;;;;;;;;;;;;;;5014873;28;1078;-74
2023/01/14 04:51:42;;;;;;;;;;;;;;;;;;5031121;28;1281;-74
2023/01/14 04:54:07;;;;;;;;;;;;;;;;;;5031036;28;1263;-74
2023/01/14 04:56:33;;;;;;;;;;;;;;;;;;5013930;28;1121;-74
2023/01/14 04:59:01;;;;;;;;;;;;;;;;;;5030548;28;1906;-74
2023/01/14 05:01:30;;;;;;;;;;;;;;;;;;5030784;28;1366;-74
2023/01/14 05:03:58;;;;;;;;;;;;;;;;;;5030586;28;1301;-74
2023/01/14 05:06:34;;;;;;;;;;;;;;;;;;5030828;28;1314;-74
2023/01/14 05:08:59;;;;;;;;;;;;;;;;;;5031050;28;1290;-74
2023/01/14 05:11:25;;;;;;;;;;;;;;;;;;5030395;28;1309;-74
2023/01/14 05:13:53;;;;;;;;;;;;;;;;;;5014597;28;1204;-74
2023/01/14 05:16:18;;;;;;;;;;;;;;;;;;5032251;28;1046;-74
2023/01/14 05:18:44;;;;;;;;;;;;;;;;;;5030510;28;1200;-74
2023/01/14 05:21:09;;;;;;;;;;;;;;;;;;5030189;28;1910;-74
2023/01/14 05:23:37;;;;;;;;;;;;;;;;;;5030169;28;898;-74
2023/01/14 05:26:02;;;;;;;;;;;;;;;;;;5031450;28;920;-75
2023/01/14 05:28:28;;;;;;;;;;;;;;;;;;5030453;28;1240;-74
2023/01/14 05:30:55;;;;;;;;;;;;;;;;;;5030612;28;1192;-74
2023/01/14 05:33:22;;;;;;;;;;;;;;;;;;5030509;28;1247;-74
2023/01/14 05:35:53;;;;;;;;;;;;;;;;;;5031687;28;918;-74
2023/01/14 05:38:20;;;;;;;;;;;;;;;;;;5030759;28;1219;-74
2023/01/14 05:40:46;;;;;;;;;;;;;;;;;;5029976;28;1902;-74
2023/01/14 05:45:55;;;;;;;;;;;;;;;;;;5030567;28;863;-74
2023/01/14 05:48:24;;;;;;;;;;;;;;;;;;5032261;28;797;-74
2023/01/14 05:50:54;;;;;;;;;;;;;;;;;;5030534;28;1245;-74
2023/01/14 05:53:20;;;;;;;;;;;;;;;;;;5030620;28;1331;-74
2023/01/14 05:55:46;;;;;;;;;;;;;;;;;;5029970;28;1197;-74
2023/01/14 05:58:14;;;;;;;;;;;;;;;;;;5030193;28;1184;-74
2023/01/14 06:06:22;;;;;;;;;;;;;;;;;;5031672;28;631;-74
2023/01/14 06:08:47;;;;;;;;;;;;;;;;;;5029868;28;1513;-74
2023/01/14 06:11:13;;;;;;;;;;;;;;;;;;5031753;28;932;-74
2023/01/14 06:13:38;;;;;;;;;;;;;;;;;;5031573;28;1125;-74
2023/01/14 06:16:07;;;;;;;;;;;;;;;;;;5031451;28;913;-75
2023/01/14 06:18:38;;;;;;;;;;;;;;;;;;5031643;28;761;-75
2023/01/14 06:21:05;;;;;;;;;;;;;;;;;;5031359;28;1890;-74
2023/01/14 06:23:30;;;;;;;;;;;;;;;;;;5030477;28;1334;-74
2023/01/14 06:25:56;;;;;;;;;;;;;;;;;;5030412;28;841;-69
2023/01/14 06:28:21;;;;;;;;;;;;;;;;;;5030281;28;849;-69
2023/01/14 06:30:48;;;;;;;;;;;;;;;;;;5032242;28;1232;-69
2023/01/14 06:33:13;;;;;;;;;;;;;;;;;;5033211;28;1331;-69
2023/01/14 06:35:43;;;;;;;;;;;;;;;;;;5032888;28;931;-69
2023/01/14 06:38:12;;;;;;;;;;;;;;;;;;5034251;28;865;-69
2023/01/14 06:40:38;;;;;;;;;;;;;;;;;;5033326;28;1918;-69
2023/01/14 06:43:03;;;;;;;;;;;;;;;;;;5034997;28;837;-69
2023/01/14 06:45:29;;;;;;;;;;;;;;;;;;5033375;28;1243;-69
2023/01/14 06:47:54;;;;;;;;;;;;;;;;;;5033265;28;1295;-70
2023/01/14 06:50:19;;;;;;;;;;;;;;;;;;5016905;28;1207;-69
2023/01/14 06:52:45;;;;;;;;;;;;;;;;;;5034444;28;873;-70
2023/01/14 06:55:10;;;;;;;;;;;;;;;;;;5033177;28;1422;-70
2023/01/14 06:57:36;;;;;;;;;;;;;;;;;;5032300;28;1334;-70
2023/01/14 07:00:01;;;;;;;;;;;;;;;;;;5032646;28;1961;-69
2023/01/14 07:02:26;;;;;;;;;;;;;;;;;;5032805;28;1215;-69
2023/01/14 07:04:52;;;;;;;;;;;;;;;;;;5033993;28;896;-68
2023/01/14 07:07:18;;;;;;;;;;;;;;;;;;5016160;28;1204;-69
2023/01/14 07:09:43;;;;;;;;;;;;;;;;;;5033608;28;805;-69
2023/01/14 07:12:09;;;;;;;;;;;;;;;;;;5033988;28;829;-69
2023/01/14 07:14:34;;;;;;;;;;;;;;;;;;5015842;28;1284;-69
2023/01/14 07:17:03;;;;;;;;;;;;;;;;;;5032585;28;794;-69
2023/01/14 07:19:28;;;;;;;;;;;;;;;;;;5034012;28;1961;-69
2023/01/14 07:21:54;;;;;;;;;;;;;;;;;;5032728;28;1219;-69
2023/01/14 07:24:19;;;;;;;;;;;;;;;;;;5033122;28;979;-69
2023/01/14 07:26:44;;;;;;;;;;;;;;;;;;5033631;28;916;-69
2023/01/14 07:29:10;;;;;;;;;;;;;;;;;;5015782;28;1458;-70
2023/01/14 07:31:35;;;;;;;;;;;;;;;;;;5032565;28;849;-71
2023/01/14 07:34:00;;;;;;;;;;;;;;;;;;5016012;28;1093;-68
2023/01/14 07:36:25;;;;;;;;;;;;;;;;;;5015970;28;1342;-68
2023/01/14 07:38:51;;;;;;;;;;;;;;;;;;5033760;28;766;-70
2023/01/14 07:41:18;;;;;;;;;;;;;;;;;;5015618;28;1898;-68
2023/01/14 07:43:43;;;;;;;;;;;;;;;;;;5033767;28;766;-70
2023/01/14 07:46:09;;;;;;;;;;;;;;;;;;5015312;28;1286;-70
2023/01/14 07:48:34;;;;;;;;;;;;;;;;;;5015838;28;1219;-70
2023/01/14 07:51:02;;;;;;;;;;;;;;;;;;5032367;28;1131;-68
2023/01/14 07:53:27;;;;;;;;;;;;;;;;;;5033250;28;920;-68
2023/01/14 07:55:52;;;;;;;;;;;;;;;;;;5031832;28;837;-68
2023/01/14 07:58:17;;;;;;;;;;;;;;;;;;5031793;28;1318;-68
2023/01/14 08:00:43;;;;;;;;;;;;;;;;;;5032763;28;1969;-68
2023/01/14 08:03:08;;;;;;;;;;;;;;;;;;5014820;28;1291;-68
2023/01/14 08:05:34;;;;;;;;;;;;;;;;;;5031135;28;1232;-68
2023/01/14 08:08:00;;;;;;;;;;;;;;;;;;5013355;28;1158;-67
2023/01/14 08:10:25;;;;;;;;;;;;;;;;;;5031061;28;1211;-67
2023/01/14 08:12:50;;;;;;;;;;;;;;;;;;5032947;28;904;-67
2023/01/14 08:15:16;;;;;;;;;;;;;;;;;;5031295;28;1093;-67
2023/01/14 08:17:41;;;;;;;;;;;;;;;;;;5031085;28;979;-67
2023/01/14 08:20:07;;;;;;;;;;;;;;;;;;5032311;28;1898;-67
2023/01/14 08:22:32;;;;;;;;;;;;;;;;;;5030658;28;1142;-67
2023/01/14 08:24:58;;;;;;;;;;;;;;;;;;5031112;28;1240;-67
2023/01/14 08:27:23;;;;;;;;;;;;;;;;;;5031338;28;1283;-67
2023/01/14 08:29:49;;;;;;;;;;;;;;;;;;5015460;28;1187;-67
2023/01/14 08:32:14;;;;;;;;;;;;;;;;;;5014735;28;1279;-67
2023/01/14 08:34:39;;;;;;;;;;;;;;;;;;5032488;28;896;-68
2023/01/14 08:37:05;;;;;;;;;;;;;;;;;;5014563;28;1335;-67
2023/01/14 08:39:30;;;;;;;;;;;;;;;;;;5031212;28;1898;-67
2023/01/14 08:41:56;;;;;;;;;;;;;;;;;;5030885;28;821;-67
2023/01/14 08:44:22;;;;;;;;;;;;;;;;;;5032808;28;951;-67
2023/01/14 08:46:47;;;;;;;;;;;;;;;;;;5032321;28;794;-67
2023/01/14 08:49:13;;;;;;;;;;;;;;;;;;5032522;28;916;-67
2023/01/14 08:51:39;;;;;;;;;;;;;;;;;;5032639;28;884;-66
2023/01/14 08:54:05;;;;;;;;;;;;;;;;;;5031021;28;1255;-66
2023/01/14 08:56:30;;;;;;;;;;;;;;;;;;5030596;28;1265;-67
2023/01/14 08:58:55;;;;;;;;;;;;;;;;;;5030301;28;1382;-66
2023/01/14 09:01:24;;;;;;;;;;;;;;;;;;5032425;28;1977;-67
2023/01/14 09:03:52;;;;;;;;;;;;;;;;;;5030546;28;1250;-67
2023/01/14 09:06:19;;;;;;;;;;;;;;;;;;5030972;28;1333;-68
2023/01/14 09:17:09;;;;;;;;;;;;;;;;;;5030758;28;671;-66
2023/01/14 09:19:58;;;;;;;;;;;;;;;;;;5030866;28;1969;-67
2023/01/14 09:22:28;;;;;;;;;;;;;;;;;;5031751;28;912;-68
2023/01/14 09:24:54;;;;;;;;;;;;;;;;;;5030262;28;1449;-68
2023/01/14 09:27:20;;;;;;;;;;;;;;;;;;5029939;28;1074;-69
2023/01/14 09:29:45;;;;;;;;;;;;;;;;;;5028861;28;1278;-68
2023/01/14 09:32:12;;;;;;;;;;;;;;;;;;5013959;28;1399;-69
2023/01/14 09:34:38;;;;;;;;;;;;;;;;;;5029672;28;1276;-68
2023/01/14 09:37:04;;;;;;;;;;;;;;;;;;5013244;28;1493;-68
2023/01/14 09:39:29;;;;;;;;;;;;;;;;;;5031165;28;1902;-69
2023/01/14 09:41:56;;;;;;;;;;;;;;;;;;5013502;28;1172;-69
2023/01/14 09:44:23;;;;;;;;;;;;;;;;;;5029684;28;1232;-69
2023/01/14 09:46:50;;;;;;;;;;;;;;;;;;5031349;28;880;-69
2023/01/14 09:49:17;;;;;;;;;;;;;;;;;;5031083;28;829;-69
2023/01/14 09:51:57;;;;;;;;;;;;;;;;;;5029966;28;1323;-68
2023/01/14 09:54:38;;;;;;;;;;;;;;;;;;5031215;28;900;-68
2023/01/14 09:57:10;;;;;;;;;;;;;;;;;;5029571;28;1144;-68
2023/01/14 09:59:49;;;;;;;;;;;;;;;;;;5030997;28;1914;-68
2023/01/14 10:02:31;;;;;;;;;;;;;;;;;;5029629;28;1187;-69
2023/01/14 10:05:01;;;;;;;;;;;;;;;;;;5029996;28;1346;-69
2023/01/14 10:07:28;;;;;;;;;;;;;;;;;;5035408;28;849;-74
2023/01/14 10:09:54;;;;;;;;;;;;;;;;;;5034852;28;790;-74
2023/01/14 10:12:29;;;;;;;;;;;;;;;;;;5035002;28;825;-74
2023/01/14 10:15:23;;;;;;;;;;;;;;;;;;5034808;28;845;-74
2023/01/14 10:17:56;;;;;;;;;;;;;;;;;;5025179;28;1317;-74
2023/01/14 10:20:26;;;;;;;;;;;;;;;;;;5033512;28;1969;-75
2023/01/14 10:22:57;;;;;;;;;;;;;;;;;;5035185;28;888;-74
2023/01/14 10:25:23;;;;;;;;;;;;;;;;;;5033979;28;1196;-74
2023/01/14 10:27:52;;;;;;;;;;;;;;;;;;5034765;28;931;-74
2023/01/14 10:30:22;;;;;;;;;;;;;;;;;;5033343;28;1274;-74
2023/01/14 10:32:49;;;;;;;;;;;;;;;;;;5035526;28;829;-74
2023/01/14 10:35:17;;;;;;;;;;;;;;;;;;5034838;28;845;-69
2023/01/14 10:37:42;;;;;;;;;;;;;;;;;;5034891;28;817;-68
2023/01/14 10:40:19;;;;;;;;;;;;;;;;;;5032761;28;1969;-68
2023/01/14 10:42:45;;;;;;;;;;;;;;;;;;5033039;28;1187;-68
2023/01/14 10:45:11;;;;;;;;;;;;;;;;;;5016625;28;996;-68
2023/01/14 10:47:37;;;;;;;;;;;;;;;;;;5033324;28;861;-68
2023/01/14 10:50:06;;;;;;;;;;;;;;;;;;5032654;28;1206;-68
2023/01/14 10:52:32;;;;;;;;;;;;;;;;;;5033302;28;1386;-68
2023/01/14 10:55:01;;;;;;;;;;;;;;;;;;5032683;28;826;-69
2023/01/14 10:57:28;;;;;;;;;;;;;;;;;;5033688;28;879;-69
2023/01/14 10:59:57;;;;;;;;;;;;;;;;;;5033384;28;1902;-68
2023/01/14 11:02:30;;;;;;;;;;;;;;;;;;5033809;28;872;-68
2023/01/14 11:04:55;;;;;;;;;;;;;;;;;;5033744;28;947;-67
2023/01/14 11:07:32;;;;;;;;;;;;;;;;;;5033848;28;944;-67
2023/01/14 11:09:59;;;;;;;;;;;;;;;;;;5032335;28;1313;-68
2023/01/14 11:12:34;;;;;;;;;;;;;;;;;;5033701;28;889;-68
2023/01/14 11:14:59;;;;;;;;;;;;;;;;;;5033702;28;928;-67
2023/01/14 11:17:25;;;;;;;;;;;;;;;;;;5033648;28;882;-68
2023/01/14 11:19:50;;;;;;;;;;;;;;;;;;5032461;28;1898;-67
2023/01/14 11:22:16;;;;;;;;;;;;;;;;;;5032439;28;806;-68
2023/01/14 11:24:45;;;;;;;;;;;;;;;;;;5033819;28;853;-68
2023/01/14 11:27:30;;;;;;;;;;;;;;;;;;5032113;28;1211;-68
2023/01/14 11:29:59;;;;;;;;;;;;;;;;;;5032327;28;1350;-68
2023/01/14 11:32:26;;;;;;;;;;;;;;;;;;5031908;28;928;-68
2023/01/14 11:34:51;;;;;;;;;;;;;;;;;;5032351;28;1322;-67
2023/01/14 11:37:21;;;;;;;;;;;;;;;;;;5033185;28;892;-68
2023/01/14 11:39:48;;;;;;;;;;;;;;;;;;5034136;28;1883;-68
2023/01/14 11:42:33;;;;;;;;;;;;;;;;;;5031652;28;1204;-68
2023/01/14 11:45:14;;;;;;;;;;;;;;;;;;5031814;28;1422;-68
2023/01/14 11:47:53;;;;;;;;;;;;;;;;;;5032616;28;1208;-68
2023/01/14 11:50:22;;;;;;;;;;;;;;;;;;5033319;28;912;-68
2023/01/14 11:52:57;;;;;;;;;;;;;;;;;;5033445;28;849;-67
2023/01/14 11:55:22;;;;;;;;;;;;;;;;;;5031810;28;1251;-68
2023/01/14 11:57:48;;;;;;;;;;;;;;;;;;5031790;28;1211;-68
2023/01/14 12:00:13;;;;;;;;;;;;;;;;;;5032841;28;1902;-68
2023/01/14 12:02:40;;;;;;;;;;;;;;;;;;5032068;28;888;-68
2023/01/14 12:05:11;;;;;;;;;;;;;;;;;;5032935;28;821;-68
2023/01/14 12:07:54;;;;;;;;;;;;;;;;;;5033437;28;900;-68
2023/01/14 12:10:25;;;;;;;;;;;;;;;;;;5031919;28;1220;-68
2023/01/14 12:18:24;;;;;;;;;;;;;;;;;;5032738;28;715;-67
2023/01/14 12:20:52;;;;;;;;;;;;;;;;;;5031363;28;1949;-68
2023/01/14 12:23:20;;;;;;;;;;;;;;;;;;5031539;28;1349;-68
2023/01/14 12:25:47;;;;;;;;;;;;;;;;;;5030001;28;1204;-68
2023/01/14 12:28:12;;;;;;;;;;;;;;;;;;5029653;28;1148;-68
2023/01/14 12:30:44;;;;;;;;;;;;;;;;;;5032428;28;853;-68
2023/01/14 12:33:09;;;;;;;;;;;;;;;;;;5030770;28;1366;-68
2023/01/14 12:35:42;;;;;;;;;;;;;;;;;;5032521;28;912;-67
2023/01/14 12:45:41;;;;;;;;;;;;;;;;;;5032074;28;849;-68
2023/01/14 12:46:32;;;;;;;;;;;;;;;;;;5032348;28;715;-68
2023/01/14 12:48:58;;;;;;;;;;;;;;;;;;5030905;28;963;-68
2023/01/14 12:51:27;;;;;;;;;;;;;;;;;;5031582;28;835;-68
2023/01/14 12:54:00;;;;;;;;;;;;;;;;;;5030907;28;1531;-67
2023/01/14 12:56:31;;;;;;;;;;;;;;;;;;5032594;28;872;-67
2023/01/14 12:58:59;;;;;;;;;;;;;;;;;;5032181;28;1011;-67
2023/01/14 13:01:26;;;;;;;;;;;;;;;;;;5030292;28;1914;-67
2023/01/14 13:04:01;;;;;;;;;;;;;;;;;;5030885;28;1228;-67
2023/01/14 13:06:33;;;;;;;;;;;;;;;;;;5030606;28;1255;-67
2023/01/14 13:09:00;;;;;;;;;;;;;;;;;;5031993;28;790;-68
2023/01/14 13:11:27;;;;;;;;;;;;;;;;;;5031650;28;837;-68
2023/01/14 13:13:54;;;;;;;;;;;;;;;;;;5030093;28;1374;-66
2023/01/14 13:16:41;;;;;;;;;;;;;;;;;;5030686;28;1412;-67
2023/01/14 13:19:26;;;;;;;;;;;;;;;;;;5031139;28;852;-67
2023/01/14 13:21:54;;;;;;;;;;;;;;;;;;5031242;28;985;-67
2023/01/14 13:24:33;;;;;;;;;;;;;;;;;;5031872;28;814;-68
2023/01/14 13:26:59;;;;;;;;;;;;;;;;;;5030081;28;1347;-67
2023/01/14 13:29:26;;;;;;;;;;;;;;;;;;5031663;28;872;-68
2023/01/14 13:31:53;;;;;;;;;;;;;;;;;;5031925;28;1120;-71
2023/01/14 13:34:22;;;;;;;;;;;;;;;;;;5014719;28;1292;-72
2023/01/14 13:36:59;;;;;;;;;;;;;;;;;;5030622;28;1252;-69
2023/01/14 13:39:26;;;;;;;;;;;;;;;;;;5034055;28;1945;-70
2023/01/14 13:41:52;;;;;;;;;;;;;;;;;;5036275;28;841;-71
2023/01/14 13:44:37;;;;;;;;;;;;;;;;;;5035404;28;1247;-71
2023/01/14 13:47:16;;;;;;;;;;;;;;;;;;5037571;28;845;-68
2023/01/14 13:49:44;;;;;;;;;;;;;;;;;;5035814;28;1130;-73
2023/01/14 13:52:14;;;;;;;;;;;;;;;;;;5036763;28;947;-72
2023/01/14 13:54:40;;;;;;;;;;;;;;;;;;5035420;28;1291;-72
2023/01/14 13:57:08;;;;;;;;;;;;;;;;;;5035710;28;1306;-67
2023/01/14 13:59:35;;;;;;;;;;;;;;;;;;5036169;28;1914;-75
2023/01/14 14:02:00;;;;;;;;;;;;;;;;;;5033430;28;1187;-71
2023/01/14 14:04:45;;;;;;;;;;;;;;;;;;5034236;28;1307;-68
2023/01/14 14:07:30;;;;;;;;;;;;;;;;;;5034521;28;1208;-70
2023/01/14 14:09:58;;;;;;;;;;;;;;;;;;5035754;28;993;-69
2023/01/14 14:15:20;;;;;;;;;;;;;;;;;;5035083;28;647;-71
2023/01/14 14:17:50;;;;;;;;;;;;;;;;;;5035802;28;947;-73
2023/01/14 14:20:18;;;;;;;;;;;;;;;;;;5035948;28;1973;-74
2023/01/14 14:22:46;;;;;;;;;;;;;;;;;;5034708;28;1211;-68
2023/01/14 14:25:20;;;;;;;;;;;;;;;;;;5035631;28;833;-70
2023/01/14 14:27:48;;;;;;;;;;;;;;;;;;5036245;28;825;-72
2023/01/14 14:30:13;;;;;;;;;;;;;;;;;;5034478;28;1239;-72
2023/01/14 14:32:40;;;;;;;;;;;;;;;;;;5034644;28;1224;-73
2023/01/14 14:35:06;;;;;;;;;;;;;;;;;;5034478;28;1330;-74
2023/01/14 14:37:34;;;;;;;;;;;;;;;;;;5034790;28;1338;-72
2023/01/14 14:40:00;;;;;;;;;;;;;;;;;;5032416;28;1957;-68
2023/01/14 14:42:25;;;;;;;;;;;;;;;;;;5031182;28;1141;-70
2023/01/14 14:44:52;;;;;;;;;;;;;;;;;;5015860;28;1225;-71
2023/01/14 14:47:28;;;;;;;;;;;;;;;;;;5033446;28;1169;-70
2023/01/14 14:49:54;;;;;;;;;;;;;;;;;;5033043;28;1288;-70
2023/01/14 14:52:19;;;;;;;;;;;;;;;;;;5034910;28;805;-70
2023/01/14 14:54:52;;;;;;;;;;;;;;;;;;5033970;28;1370;-72
2023/01/14 14:57:17;;;;;;;;;;;;;;;;;;5034378;28;1432;-67
2023/01/14 14:59:43;;;;;;;;;;;;;;;;;;5034472;28;1935;-71
2023/01/14 15:02:28;;;;;;;;;;;;;;;;;;5034357;28;1330;-69
2023/01/14 15:04:57;;;;;;;;;;;;;;;;;;5027950;28;1194;-69
2023/01/14 15:07:23;;;;;;;;;;;;;;;;;;5034887;28;830;-71
2023/01/14 15:09:49;;;;;;;;;;;;;;;;;;5035865;28;916;-71
2023/01/14 15:12:16;;;;;;;;;;;;;;;;;;5017781;28;1469;-71
2023/01/14 15:14:43;;;;;;;;;;;;;;;;;;5034059;28;1291;-76
2023/01/14 15:17:18;;;;;;;;;;;;;;;;;;5034407;28;1118;-74
2023/01/14 15:19:43;;;;;;;;;;;;;;;;;;5033953;28;1965;-73
2023/01/14 15:22:10;;;;;;;;;;;;;;;;;;5033938;28;1240;-75
2023/01/14 15:24:36;;;;;;;;;;;;;;;;;;5035068;28;872;-72
2023/01/14 15:27:03;;;;;;;;;;;;;;;;;;5033604;28;1133;-76
2023/01/14 15:29:29;;;;;;;;;;;;;;;;;;5034352;28;907;-71
2023/01/14 15:31:55;;;;;;;;;;;;;;;;;;5033145;28;1303;-73
2023/01/14 15:34:26;;;;;;;;;;;;;;;;;;5033323;28;1243;-74
2023/01/14 15:36:54;;;;;;;;;;;;;;;;;;5033501;28;817;-69
2023/01/14 15:39:20;;;;;;;;;;;;;;;;;;5033539;28;1228;-68
2023/01/14 15:41:49;;;;;;;;;;;;;;;;;;5033379;28;1906;-71
2023/01/14 15:44:34;;;;;;;;;;;;;;;;;;5033434;28;1219;-67
2023/01/14 15:47:00;;;;;;;;;;;;;;;;;;5032236;28;1409;-69
2023/01/14 15:49:26;;;;;;;;;;;;;;;;;;5032483;28;955;-69
2023/01/14 15:51:52;;;;;;;;;;;;;;;;;;5032959;28;1235;-68
2023/01/14 15:54:37;;;;;;;;;;;;;;;;;;5033453;28;805;-68
2023/01/14 15:57:11;;;;;;;;;;;;;;;;;;5034030;28;903;-68
2023/01/14 15:59:36;;;;;;;;;;;;;;;;;;5032714;28;1918;-69
2023/01/14 16:02:01;;;;;;;;;;;;;;;;;;5032826;28;889;-69
2023/01/14 16:04:32;;;;;;;;;;;;;;;;;;5032143;28;817;-68
2023/01/14 16:07:17;;;;;;;;;;;;;;;;;;5032787;28;1446;-67
2023/01/14 16:09:43;;;;;;;;;;;;;;;;;;5032664;28;1195;-68
2023/01/14 16:12:13;;;;;;;;;;;;;;;;;;5032549;28;1341;-67
2023/01/14 16:14:40;;;;;;;;;;;;;;;;;;5033788;28;935;-67
2023/01/14 16:17:10;;;;;;;;;;;;;;;;;;5033041;28;1310;-68
2023/01/14 16:19:37;;;;;;;;;;;;;;;;;;5032451;28;1898;-68
2023/01/14 16:22:02;;;;;;;;;;;;;;;;;;5015896;28;1236;-68
2023/01/14 16:24:27;;;;;;;;;;;;;;;;;;5033276;28;908;-68
2023/01/14 16:26:53;;;;;;;;;;;;;;;;;;5032549;28;1177;-68
2023/01/14 16:29:24;;;;;;;;;;;;;;;;;;5032529;28;841;-68
2023/01/14 16:31:49;;;;;;;;;;;;;;;;;;5034057;28;935;-68
2023/01/14 16:34:14;;;;;;;;;;;;;;;;;;5015936;28;1215;-70
2023/01/14 16:36:40;;;;;;;;;;;;;;;;;;5033308;28;1244;-72
2023/01/14 16:39:11;;;;;;;;;;;;;;;;;;5032213;28;956;-69
2023/01/14 16:41:45;;;;;;;;;;;;;;;;;;5032229;28;1943;-72
2023/01/14 16:44:10;;;;;;;;;;;;;;;;;;5033471;28;900;-68
2023/01/14 16:46:35;;;;;;;;;;;;;;;;;;5032232;28;1358;-67
2023/01/14 16:49:01;;;;;;;;;;;;;;;;;;5032354;28;900;-68
2023/01/14 16:51:27;;;;;;;;;;;;;;;;;;5031584;28;1600;-70
2023/01/14 16:53:52;;;;;;;;;;;;;;;;;;5030341;28;1223;-70
2023/01/14 16:56:21;;;;;;;;;;;;;;;;;;5031557;28;901;-70
2023/01/14 16:58:50;;;;;;;;;;;;;;;;;;5030632;28;1209;-70
2023/01/14 17:01:15;;;;;;;;;;;;;;;;;;5015217;28;1902;-73
2023/01/14 17:03:41;;;;;;;;;;;;;;;;;;5031877;28;900;-73
2023/01/14 17:06:06;;;;;;;;;;;;;;;;;;5030537;28;920;-73
2023/01/14 17:08:31;;;;;;;;;;;;;;;;;;5014136;28;1371;-73
2023/01/14 17:10:57;;;;;;;;;;;;;;;;;;5030217;28;1120;-73
2023/01/14 17:13:22;;;;;;;;;;;;;;;;;;5030802;28;868;-73
2023/01/14 17:15:47;;;;;;;;;;;;;;;;;;5031439;28;892;-73
2023/01/14 17:18:13;;;;;;;;;;;;;;;;;;5030132;28;892;-74
2023/01/14 17:20:38;;;;;;;;;;;;;;;;;;5032346;28;1906;-73
2023/01/14 17:23:04;;;;;;;;;;;;;;;;;;5031919;28;865;-73
2023/01/14 17:25:30;;;;;;;;;;;;;;;;;;5031674;28;880;-73
2023/01/14 17:27:58;;;;;;;;;;;;;;;;;;5030520;28;1231;-73
2023/01/14 17:30:25;;;;;;;;;;;;;;;;;;5013800;28;1376;-73
2023/01/14 17:32:51;;;;;;;;;;;;;;;;;;5031122;28;903;-70
2023/01/14 17:35:17;;;;;;;;;;;;;;;;;;5031752;28;770;-70
2023/01/14 17:37:43;;;;;;;;;;;;;;;;;;5030032;28;1176;-70
2023/01/14 17:40:16;;;;;;;;;;;;;;;;;;5031600;28;1882;-69
2023/01/14 17:42:44;;;;;;;;;;;;;;;;;;5030110;28;1263;-70
2023/01/14 17:45:10;;;;;;;;;;;;;;;;;;5031365;28;919;-70
2023/01/14 17:47:35;;;;;;;;;;;;;;;;;;5031394;28;841;-70
2023/01/14 17:50:03;;;;;;;;;;;;;;;;;;5013492;28;1310;-70
2023/01/14 17:52:29;;;;;;;;;;;;;;;;;;5030366;28;949;-70
2023/01/14 17:54:54;;;;;;;;;;;;;;;;;;5031460;28;829;-70
2023/01/14 17:57:19;;;;;;;;;;;;;;;;;;5031856;28;908;-70